Time;durP1;ratioP1;P1;durP2;ratioP2;P2;SDS_P1;SDS_P2;PMS_P1;PMS_P2;Temp;Humidity;BMP_temperature;BMP_pressure;BME280_temperature;BME280_humidity;BME280_pressure;Samples;Min_cycle;Max_cycle;Signal;HPM_P1;HPM_P2
2023/03/05 00:01:41;;;;;;;;;;;;;;;1.81;75.79;100091.28;106685;1274;25210;-55
2023/03/05 00:04:12;;;;;;;;;;;;;;;1.76;75.57;100093.10;106328;1264;25348;-60
2023/03/05 00:06:42;;;;;;;;;;;;;;;1.73;75.68;100093.33;106410;1274;25327;-58
2023/03/05 00:09:11;;;;;;;;;;;;;;;1.72;75.84;100090.43;106526;1272;22485;-58
2023/03/05 00:11:40;;;;;;;;;;;;;;;1.74;75.78;100092.29;106438;1265;22541;-57
2023/03/05 00:14:10;;;;;;;;;;;;;;;1.73;75.96;100090.56;106413;1268;22714;-58
2023/03/05 00:16:39;;;;;;;;;;;;;;;1.76;76.64;100089.79;106396;1265;22506;-57
2023/03/05 00:19:10;;;;;;;;;;;;;;;1.80;77.17;100087.35;106349;1278;22502;-58
2023/03/05 00:21:40;;;;;;;;;;;;;;;1.83;77.03;100083.91;106468;1272;23146;-58
2023/03/05 00:24:12;;;;;;;;;;;;;;;1.84;76.87;100084.77;106420;1271;25602;-58
2023/03/05 00:26:41;;;;;;;;;;;;;;;1.84;76.62;100086.65;106494;1278;22563;-59
2023/03/05 00:29:12;;;;;;;;;;;;;;;1.84;76.91;100083.27;106465;1267;22706;-58
2023/03/05 00:31:43;;;;;;;;;;;;;;;1.86;77.11;100078.76;106285;1268;24280;-56
2023/03/05 00:34:13;;;;;;;;;;;;;;;1.85;76.79;100072.94;106513;1278;24773;-58
2023/03/05 00:36:43;;;;;;;;;;;;;;;1.85;77.02;100066.73;106532;1278;22851;-59
2023/03/05 00:39:13;;;;;;;;;;;;;;;1.86;77.10;100060.65;106444;1278;22607;-56
2023/03/05 00:41:42;;;;;;;;;;;;;;;1.86;76.95;100058.69;106454;1278;24230;-56
2023/03/05 00:44:11;;;;;;;;;;;;;;;1.87;76.81;100059.22;106465;1264;23890;-56
2023/03/05 00:46:41;;;;;;;;;;;;;;;1.85;76.68;100056.35;106434;1265;22530;-57
2023/03/05 00:49:10;;;;;;;;;;;;;;;1.84;76.69;100052.83;106389;1264;25327;-57
2023/03/05 00:51:39;;;;;;;;;;;;;;;1.84;76.79;100048.13;106530;1278;24367;-58
2023/03/05 00:54:08;;;;;;;;;;;;;;;1.85;77.14;100038.20;106433;1265;22520;-57
2023/03/05 00:56:37;;;;;;;;;;;;;;;1.84;77.22;100029.55;106339;1268;25508;-57
2023/03/05 00:59:07;;;;;;;;;;;;;;;1.84;77.30;100023.04;106334;1267;23019;-59
2023/03/05 01:01:36;;;;;;;;;;;;;;;1.84;77.08;100025.02;106407;1271;22503;-59
2023/03/05 01:04:05;;;;;;;;;;;;;;;1.82;76.72;100027.61;106421;1275;23334;-59
2023/03/05 01:06:36;;;;;;;;;;;;;;;1.78;76.43;100031.25;106454;1274;22514;-58
2023/03/05 01:09:06;;;;;;;;;;;;;;;1.73;76.28;100027.96;106537;1272;22649;-57
2023/03/05 01:11:35;;;;;;;;;;;;;;;1.71;76.40;100028.88;106342;1274;25343;-59
2023/03/05 01:14:04;;;;;;;;;;;;;;;1.69;76.27;100025.23;106422;1278;22750;-58
2023/03/05 01:16:33;;;;;;;;;;;;;;;1.67;75.99;100025.11;106493;1275;22615;-56
2023/03/05 01:19:02;;;;;;;;;;;;;;;1.63;75.92;100022.98;106377;1278;22488;-56
2023/03/05 01:21:32;;;;;;;;;;;;;;;1.62;76.14;100017.82;106496;1278;23289;-57
2023/03/05 01:24:01;;;;;;;;;;;;;;;1.63;76.26;100015.75;106502;1274;22500;-57
2023/03/05 01:26:30;;;;;;;;;;;;;;;1.60;76.09;100018.01;106551;1274;22531;-58
2023/03/05 01:29:00;;;;;;;;;;;;;;;1.58;76.25;100004.38;106479;1271;24042;-57
2023/03/05 01:31:29;;;;;;;;;;;;;;;1.57;76.09;100001.39;106390;1272;22501;-58
2023/03/05 01:33:59;;;;;;;;;;;;;;;1.55;75.97;100003.10;106492;1278;24001;-55
2023/03/05 01:36:29;;;;;;;;;;;;;;;1.52;75.90;100001.42;106680;1268;22508;-58
2023/03/05 01:38:58;;;;;;;;;;;;;;;1.52;76.23;99993.81;106412;1263;25357;-58
2023/03/05 01:41:27;;;;;;;;;;;;;;;1.54;76.68;99990.08;106395;1278;25745;-59
2023/03/05 01:43:56;;;;;;;;;;;;;;;1.56;76.74;99987.92;106585;1275;22757;-59
2023/03/05 01:46:28;;;;;;;;;;;;;;;1.57;76.66;99982.70;106475;1271;22616;-59
2023/03/05 01:49:02;;;;;;;;;;;;;;;1.58;76.41;99982.61;106789;1275;22504;-59
2023/03/05 01:51:32;;;;;;;;;;;;;;;1.59;76.43;99977.80;106707;1271;22617;-57
2023/03/05 01:54:02;;;;;;;;;;;;;;;1.60;76.14;99979.27;106509;1278;22510;-59
2023/03/05 01:56:32;;;;;;;;;;;;;;;1.58;76.01;99976.79;106602;1278;22511;-57
2023/03/05 01:59:03;;;;;;;;;;;;;;;1.56;76.30;99974.00;106397;1263;25382;-58
2023/03/05 02:01:36;;;;;;;;;;;;;;;1.55;76.38;99971.27;106441;1278;22494;-58
2023/03/05 02:04:07;;;;;;;;;;;;;;;1.53;76.15;99976.34;106351;1270;23029;-58
2023/03/05 02:06:36;;;;;;;;;;;;;;;1.52;76.31;99972.03;106529;1278;22497;-56
2023/03/05 02:09:05;;;;;;;;;;;;;;;1.51;76.17;99969.01;106509;1278;22501;-56
2023/03/05 02:11:35;;;;;;;;;;;;;;;1.48;75.88;99968.19;106475;1269;22498;-57
2023/03/05 02:14:05;;;;;;;;;;;;;;;1.46;75.70;99972.23;106565;1278;25330;-59
2023/03/05 02:16:35;;;;;;;;;;;;;;;1.39;75.75;99970.66;106515;1275;24271;-58
2023/03/05 02:19:05;;;;;;;;;;;;;;;1.35;75.97;99976.32;106532;1278;24267;-58
2023/03/05 02:21:39;;;;;;;;;;;;;;;1.32;75.95;99968.60;106721;1278;24196;-57
2023/03/05 02:24:09;;;;;;;;;;;;;;;1.29;75.73;99971.33;106442;1274;22503;-56
2023/03/05 02:26:38;;;;;;;;;;;;;;;1.28;75.97;99975.19;106442;1274;22558;-58
2023/03/05 02:29:09;;;;;;;;;;;;;;;1.28;75.88;99980.08;106381;1273;22549;-55
2023/03/05 02:31:39;;;;;;;;;;;;;;;1.23;75.70;99977.27;106516;1263;22626;-56
2023/03/05 02:34:08;;;;;;;;;;;;;;;1.21;76.05;99974.00;106377;1272;26598;-58
2023/03/05 02:36:37;;;;;;;;;;;;;;;1.23;76.42;99976.71;106302;1278;25417;-58
2023/03/05 02:39:07;;;;;;;;;;;;;;;1.22;76.37;99979.70;106304;1278;24227;-55
2023/03/05 02:41:37;;;;;;;;;;;;;;;1.21;76.46;99974.86;106436;1278;22938;-58
2023/03/05 02:44:06;;;;;;;;;;;;;;;1.21;76.41;99969.76;106337;1268;25620;-57
2023/03/05 02:46:35;;;;;;;;;;;;;;;1.19;76.40;99966.67;106462;1278;22458;-59
2023/03/05 02:49:05;;;;;;;;;;;;;;;1.14;76.61;99963.98;106381;1278;24221;-59
2023/03/05 02:51:34;;;;;;;;;;;;;;;1.10;76.86;99961.09;106334;1278;22498;-58
2023/03/05 02:54:03;;;;;;;;;;;;;;;1.05;76.82;99953.58;106439;1271;25371;-60
2023/03/05 02:56:33;;;;;;;;;;;;;;;1.01;77.09;99955.30;106833;1271;24051;-56
2023/03/05 02:59:02;;;;;;;;;;;;;;;0.96;77.27;99960.65;106440;1271;24235;-58
2023/03/05 03:01:31;;;;;;;;;;;;;;;0.92;77.42;99958.30;106482;1272;22506;-58
2023/03/05 03:04:01;;;;;;;;;;;;;;;0.88;77.61;99959.86;106310;1278;22613;-59
2023/03/05 03:06:30;;;;;;;;;;;;;;;0.87;77.75;99961.13;106525;1274;22505;-58
2023/03/05 03:08:59;;;;;;;;;;;;;;;0.86;78.01;99954.55;106470;1263;25434;-59
2023/03/05 03:11:28;;;;;;;;;;;;;;;0.86;78.15;99951.72;106438;1276;22574;-60
2023/03/05 03:13:59;;;;;;;;;;;;;;;0.85;78.34;99945.08;106385;1278;25346;-58
2023/03/05 03:16:28;;;;;;;;;;;;;;;0.84;78.48;99942.81;106313;1272;23861;-58
2023/03/05 03:18:57;;;;;;;;;;;;;;;0.79;78.48;99936.15;106435;1278;22552;-58
2023/03/05 03:21:27;;;;;;;;;;;;;;;0.76;78.74;99932.67;106446;1271;25505;-58
2023/03/05 03:23:56;;;;;;;;;;;;;;;0.78;78.98;99929.58;106514;1278;24280;-57
2023/03/05 03:26:25;;;;;;;;;;;;;;;0.77;79.02;99930.71;106264;1260;22503;-59
2023/03/05 03:28:54;;;;;;;;;;;;;;;0.74;79.04;99924.30;106507;1278;22581;-59
2023/03/05 03:31:24;;;;;;;;;;;;;;;0.71;79.20;99921.15;106469;1278;25317;-59
2023/03/05 03:33:53;;;;;;;;;;;;;;;0.70;79.32;99918.41;106490;1278;25634;-58
2023/03/05 03:36:23;;;;;;;;;;;;;;;0.68;79.49;99912.56;106509;1278;25301;-59
2023/03/05 03:38:52;;;;;;;;;;;;;;;0.66;79.63;99913.45;106269;1265;24206;-56
2023/03/05 03:41:21;;;;;;;;;;;;;;;0.64;79.80;99910.91;106390;1278;22794;-60
2023/03/05 03:43:50;;;;;;;;;;;;;;;0.59;79.60;99906.36;106420;1276;22743;-57
2023/03/05 03:46:20;;;;;;;;;;;;;;;0.52;79.32;99897.15;106263;1278;25330;-57
2023/03/05 03:48:51;;;;;;;;;;;;;;;0.49;79.51;99888.52;106590;1278;24223;-60
2023/03/05 03:51:20;;;;;;;;;;;;;;;0.48;79.45;99888.91;106799;1275;22713;-58
2023/03/05 03:53:49;;;;;;;;;;;;;;;0.49;79.65;99887.24;106461;1273;22530;-59
2023/03/05 03:56:19;;;;;;;;;;;;;;;0.48;79.57;99884.77;106270;1265;24214;-56
2023/03/05 03:58:49;;;;;;;;;;;;;;;0.48;79.80;99876.75;106307;1268;22499;-59
2023/03/05 04:01:19;;;;;;;;;;;;;;;0.51;79.89;99874.80;106244;1272;22568;-57
2023/03/05 04:03:48;;;;;;;;;;;;;;;0.53;79.90;99871.40;106468;1278;25400;-55
2023/03/05 04:06:18;;;;;;;;;;;;;;;0.54;79.94;99870.83;106404;1270;22501;-58
2023/03/05 04:08:47;;;;;;;;;;;;;;;0.52;80.05;99866.23;106252;1275;25296;-57
2023/03/05 04:11:18;;;;;;;;;;;;;;;0.53;80.09;99866.07;106414;1278;25304;-57
2023/03/05 04:13:48;;;;;;;;;;;;;;;0.53;80.19;99859.94;106340;1272;22505;-58
2023/03/05 04:16:18;;;;;;;;;;;;;;;0.50;80.04;99852.54;106492;1276;25302;-58
2023/03/05 04:18:47;;;;;;;;;;;;;;;0.49;80.21;99852.10;106432;1278;24395;-58
2023/03/05 04:21:16;;;;;;;;;;;;;;;0.50;80.27;99850.34;106469;1272;22504;-58
2023/03/05 04:23:45;;;;;;;;;;;;;;;0.50;80.38;99846.80;106453;1278;24270;-58
2023/03/05 04:26:14;;;;;;;;;;;;;;;0.51;80.31;99845.14;106537;1272;24382;-59
2023/03/05 04:28:44;;;;;;;;;;;;;;;0.51;80.36;99838.86;106385;1275;22625;-58
2023/03/05 04:31:13;;;;;;;;;;;;;;;0.52;80.33;99834.94;106341;1278;25326;-56
2023/03/05 04:33:42;;;;;;;;;;;;;;;0.50;80.19;99828.52;106372;1278;25475;-58
2023/03/05 04:36:11;;;;;;;;;;;;;;;0.48;80.19;99827.48;106339;1274;24250;-58
2023/03/05 04:38:41;;;;;;;;;;;;;;;0.48;80.30;99825.29;106292;1278;22639;-57
2023/03/05 04:41:10;;;;;;;;;;;;;;;0.49;80.19;99819.14;106381;1272;22510;-58
2023/03/05 04:43:39;;;;;;;;;;;;;;;0.47;80.00;99813.22;106312;1278;22552;-56
2023/03/05 04:46:08;;;;;;;;;;;;;;;0.46;79.77;99815.35;106304;1274;23396;-58
2023/03/05 04:48:37;;;;;;;;;;;;;;;0.42;79.62;99813.63;106347;1278;22498;-58
2023/03/05 04:51:07;;;;;;;;;;;;;;;0.39;79.63;99811.56;106435;1274;22555;-58
2023/03/05 04:53:36;;;;;;;;;;;;;;;0.37;79.90;99806.04;106459;1271;22554;-55
2023/03/05 04:56:06;;;;;;;;;;;;;;;0.38;80.08;99803.98;106387;1270;24420;-58
2023/03/05 04:58:35;;;;;;;;;;;;;;;0.38;80.07;99802.48;106359;1278;25126;-56
2023/03/05 05:01:05;;;;;;;;;;;;;;;0.39;80.01;99803.10;106292;1275;25392;-60
2023/03/05 05:03:34;;;;;;;;;;;;;;;0.36;80.06;99798.20;106269;1278;25306;-58
2023/03/05 05:06:04;;;;;;;;;;;;;;;0.36;80.11;99794.60;106384;1273;22520;-58
2023/03/05 05:08:33;;;;;;;;;;;;;;;0.35;80.21;99798.91;106485;1278;23039;-58
2023/03/05 05:11:03;;;;;;;;;;;;;;;0.35;80.40;99794.61;106785;1278;22805;-58
2023/03/05 05:13:33;;;;;;;;;;;;;;;0.36;80.48;99794.12;106402;1266;22527;-59
2023/03/05 05:16:02;;;;;;;;;;;;;;;0.36;80.51;99791.45;106336;1278;22592;-58
2023/03/05 05:18:31;;;;;;;;;;;;;;;0.36;80.69;99795.45;106307;1278;25379;-58
2023/03/05 05:21:00;;;;;;;;;;;;;;;0.38;80.73;99794.31;106378;1263;24238;-58
2023/03/05 05:23:30;;;;;;;;;;;;;;;0.39;80.74;99792.27;106629;1269;24212;-58
2023/03/05 05:26:00;;;;;;;;;;;;;;;0.39;80.76;99797.27;106473;1278;24238;-57
2023/03/05 05:28:29;;;;;;;;;;;;;;;0.38;80.83;99792.35;106400;1266;25348;-58
2023/03/05 05:30:59;;;;;;;;;;;;;;;0.40;81.02;99792.95;106374;1278;25158;-57
2023/03/05 05:33:28;;;;;;;;;;;;;;;0.42;81.05;99793.30;106782;1267;22567;-59
2023/03/05 05:35:57;;;;;;;;;;;;;;;0.42;81.10;99792.04;106421;1275;22846;-57
2023/03/05 05:38:26;;;;;;;;;;;;;;;0.44;81.15;99792.08;106315;1278;25613;-57
2023/03/05 05:41:01;;;;;;;;;;;;;;;0.45;81.23;99792.94;106314;1278;25630;-57
2023/03/05 05:43:30;;;;;;;;;;;;;;;0.48;81.21;99794.05;106415;1272;22545;-58
2023/03/05 05:46:01;;;;;;;;;;;;;;;0.50;81.30;99795.27;106465;1278;24251;-56
2023/03/05 05:48:31;;;;;;;;;;;;;;;0.50;81.17;99792.52;106625;1271;22509;-59
2023/03/05 05:51:00;;;;;;;;;;;;;;;0.49;81.22;99790.58;106383;1278;25902;-58
2023/03/05 05:53:29;;;;;;;;;;;;;;;0.47;81.27;99793.27;106781;1274;22506;-60
2023/03/05 05:55:58;;;;;;;;;;;;;;;0.48;81.13;99793.35;106504;1271;22502;-58
2023/03/05 05:58:28;;;;;;;;;;;;;;;0.49;81.16;99787.98;106290;1272;24645;-55
2023/03/05 06:00:57;;;;;;;;;;;;;;;0.51;81.44;99792.20;106333;1278;24236;-57
2023/03/05 06:03:26;;;;;;;;;;;;;;;0.53;81.36;99786.34;106277;1278;22543;-57
2023/03/05 06:05:55;;;;;;;;;;;;;;;0.55;81.54;99782.77;106502;1278;25378;-55
2023/03/05 06:08:25;;;;;;;;;;;;;;;0.58;81.63;99781.37;106494;1274;25492;-58
2023/03/05 06:10:57;;;;;;;;;;;;;;;0.59;81.59;99779.39;106513;1272;24252;-57
2023/03/05 06:13:26;;;;;;;;;;;;;;;0.60;81.84;99777.16;106348;1269;22610;-58
2023/03/05 06:15:59;;;;;;;;;;;;;;;0.59;81.77;99778.38;106285;1278;26518;-60
2023/03/05 06:18:28;;;;;;;;;;;;;;;0.56;81.95;99773.58;106364;1278;25417;-55
2023/03/05 06:20:58;;;;;;;;;;;;;;;0.55;82.03;99771.87;106320;1274;25225;-56
2023/03/05 06:23:28;;;;;;;;;;;;;;;0.54;82.22;99766.46;106348;1278;25239;-58
2023/03/05 06:25:58;;;;;;;;;;;;;;;0.56;82.57;99765.10;106416;1278;22620;-58
2023/03/05 06:28:28;;;;;;;;;;;;;;;0.55;82.66;99766.76;106549;1276;25258;-57
2023/03/05 06:31:02;;;;;;;;;;;;;;;0.55;82.99;99758.68;106578;1278;25436;-56
2023/03/05 06:33:31;;;;;;;;;;;;;;;0.55;83.44;99756.17;106608;1278;24469;-58
2023/03/05 06:36:02;;;;;;;;;;;;;;;0.54;84.01;99756.89;106389;1273;22553;-57
2023/03/05 06:38:31;;;;;;;;;;;;;;;0.52;84.40;99754.20;106447;1275;24192;-57
2023/03/05 06:41:04;;;;;;;;;;;;;;;0.49;84.66;99751.42;106364;1278;22503;-55
2023/03/05 06:43:34;;;;;;;;;;;;;;;0.48;85.05;99750.04;106427;1273;24295;-58
2023/03/05 06:46:04;;;;;;;;;;;;;;;0.47;85.19;99748.02;106544;1278;22707;-60
2023/03/05 06:48:34;;;;;;;;;;;;;;;0.46;85.47;99751.33;106466;1264;22765;-57
2023/03/05 06:51:03;;;;;;;;;;;;;;;0.46;85.74;99747.80;106444;1274;25281;-58
2023/03/05 06:53:33;;;;;;;;;;;;;;;0.44;86.07;99752.30;106649;1278;24237;-57
2023/03/05 06:56:02;;;;;;;;;;;;;;;0.42;86.35;99755.41;106446;1278;26651;-59
2023/03/05 06:58:31;;;;;;;;;;;;;;;0.41;86.66;99752.92;106419;1278;22505;-57
2023/03/05 07:01:01;;;;;;;;;;;;;;;0.38;86.73;99753.91;106446;1278;24247;-59
2023/03/05 07:03:30;;;;;;;;;;;;;;;0.37;87.07;99758.09;106465;1278;25276;-60
2023/03/05 07:06:01;;;;;;;;;;;;;;;0.37;87.32;99759.13;106442;1272;24638;-58
2023/03/05 07:08:31;;;;;;;;;;;;;;;0.37;87.67;99756.22;106448;1274;22762;-58
2023/03/05 07:11:00;;;;;;;;;;;;;;;0.39;87.79;99758.92;106323;1278;25188;-59
2023/03/05 07:13:29;;;;;;;;;;;;;;;0.42;88.04;99757.36;106423;1272;26638;-58
2023/03/05 07:15:59;;;;;;;;;;;;;;;0.45;87.98;99755.35;106388;1273;22502;-59
2023/03/05 07:18:28;;;;;;;;;;;;;;;0.48;88.23;99754.98;106399;1278;22511;-59
2023/03/05 07:21:01;;;;;;;;;;;;;;;0.50;88.53;99754.46;106564;1276;23731;-59
2023/03/05 07:23:30;;;;;;;;;;;;;;;0.53;88.45;99753.61;106379;1263;22501;-59
2023/03/05 07:26:02;;;;;;;;;;;;;;;0.57;88.41;99753.07;106341;1277;22510;-58
2023/03/05 07:28:31;;;;;;;;;;;;;;;0.60;88.49;99748.29;106489;1278;22627;-59
2023/03/05 07:31:02;;;;;;;;;;;;;;;0.64;88.56;99747.82;106463;1278;22680;-58
2023/03/05 07:33:32;;;;;;;;;;;;;;;0.67;88.45;99748.99;106418;1278;25405;-59
2023/03/05 07:36:03;;;;;;;;;;;;;;;0.70;88.65;99743.52;106595;1265;22527;-57
2023/03/05 07:38:32;;;;;;;;;;;;;;;0.74;88.25;99745.71;106625;1278;22506;-54
2023/03/05 07:41:03;;;;;;;;;;;;;;;0.79;88.18;99745.61;106540;1271;22519;-56
2023/03/05 07:43:32;;;;;;;;;;;;;;;0.84;88.05;99745.36;106535;1274;25393;-57
2023/03/05 07:46:03;;;;;;;;;;;;;;;0.87;87.85;99743.17;106343;1278;24450;-57
2023/03/05 07:48:33;;;;;;;;;;;;;;;0.90;87.38;99741.52;106539;1278;24225;-57
2023/03/05 07:51:03;;;;;;;;;;;;;;;0.93;87.03;99740.36;106440;1264;24423;-58
2023/03/05 07:53:32;;;;;;;;;;;;;;;0.97;86.79;99738.80;106337;1277;22517;-58
2023/03/05 07:56:02;;;;;;;;;;;;;;;1.00;86.58;99735.59;106499;1273;24298;-58
2023/03/05 07:58:31;;;;;;;;;;;;;;;1.03;85.97;99733.47;106461;1260;22725;-57
2023/03/05 08:01:00;;;;;;;;;;;;;;;1.07;85.60;99733.14;106219;1257;24387;-57
2023/03/05 08:03:29;;;;;;;;;;;;;;;1.11;85.19;99737.93;106367;1278;22501;-58
2023/03/05 08:05:59;;;;;;;;;;;;;;;1.14;84.76;99727.02;106392;1265;24282;-58
2023/03/05 08:08:28;;;;;;;;;;;;;;;1.17;84.41;99729.63;106333;1272;23777;-63
2023/03/05 08:11:02;;;;;;;;;;;;;;;1.19;83.93;99726.75;106538;1273;24000;-60
2023/03/05 08:13:32;;;;;;;;;;;;;;;1.20;83.98;99728.52;106584;1278;25472;-60
2023/03/05 08:16:03;;;;;;;;;;;;;;;1.22;83.30;99729.02;106369;1277;22638;-58
2023/03/05 08:18:33;;;;;;;;;;;;;;;1.23;82.98;99728.21;106313;1278;22494;-59
2023/03/05 08:21:03;;;;;;;;;;;;;;;1.23;82.25;99727.75;106349;1278;24272;-61
2023/03/05 08:23:34;;;;;;;;;;;;;;;1.23;82.46;99732.38;106379;1272;24277;-62
2023/03/05 08:26:11;;;;;;;;;;;;;;;1.25;82.69;99726.60;106390;1271;22545;-58
2023/03/05 08:28:40;;;;;;;;;;;;;;;1.27;82.55;99736.20;106404;1274;23056;-57
2023/03/05 08:31:13;;;;;;;;;;;;;;;1.27;82.10;99746.90;106361;1263;22496;-61
2023/03/05 08:33:42;;;;;;;;;;;;;;;1.21;80.57;99746.33;106323;1264;25395;-59
2023/03/05 08:36:12;;;;;;;;;;;;;;;1.13;79.29;99748.41;106428;1278;25287;-60
2023/03/05 08:38:43;;;;;;;;;;;;;;;1.03;78.74;99744.39;106722;1275;22506;-61
2023/03/05 08:41:12;;;;;;;;;;;;;;;0.96;78.90;99747.92;106576;1278;22517;-60
2023/03/05 08:43:42;;;;;;;;;;;;;;;0.94;79.84;99744.59;106783;1274;22555;-62
2023/03/05 08:46:12;;;;;;;;;;;;;;;0.96;80.53;99751.07;106686;1273;22508;-59
2023/03/05 08:48:41;;;;;;;;;;;;;;;0.99;80.81;99746.92;106404;1278;22509;-58
2023/03/05 08:51:12;;;;;;;;;;;;;;;1.01;81.33;99745.20;106382;1278;23020;-58
2023/03/05 08:53:42;;;;;;;;;;;;;;;1.05;81.83;99745.99;106605;1267;22642;-59
2023/03/05 08:56:12;;;;;;;;;;;;;;;1.07;81.88;99745.87;106565;1263;172262;-58
2023/03/05 08:58:41;;;;;;;;;;;;;;;1.10;82.40;99737.00;106779;1272;24293;-57
2023/03/05 09:01:11;;;;;;;;;;;;;;;1.14;82.60;99730.33;106572;1273;22867;-57
2023/03/05 09:03:41;;;;;;;;;;;;;;;1.18;82.62;99727.09;106578;1278;22708;-58
2023/03/05 09:06:11;;;;;;;;;;;;;;;1.22;82.05;99735.08;106543;1272;22510;-57
2023/03/05 09:08:41;;;;;;;;;;;;;;;1.25;81.88;99739.73;106586;1264;22741;-57
2023/03/05 09:11:12;;;;;;;;;;;;;;;1.26;81.61;99742.04;106480;1264;22562;-57
2023/03/05 09:13:41;;;;;;;;;;;;;;;1.27;81.66;99742.66;106486;1271;26509;-58
2023/03/05 09:16:12;;;;;;;;;;;;;;;1.28;81.41;99736.75;106480;1266;23027;-57
2023/03/05 09:18:41;;;;;;;;;;;;;;;1.26;81.42;99738.27;106664;1271;22512;-57
2023/03/05 09:21:12;;;;;;;;;;;;;;;1.28;81.87;99733.69;106018;1260;22526;-58
2023/03/05 09:23:41;;;;;;;;;;;;;;;1.30;81.74;99733.16;106246;1268;24276;-55
2023/03/05 09:26:12;;;;;;;;;;;;;;;1.31;81.90;99738.01;106270;1273;23161;-60
2023/03/05 09:28:41;;;;;;;;;;;;;;;1.34;82.04;99729.61;106374;1272;22501;-56
2023/03/05 09:31:11;;;;;;;;;;;;;;;1.35;81.76;99736.73;106321;1278;22500;-56
2023/03/05 09:33:40;;;;;;;;;;;;;;;1.35;81.81;99732.95;106283;1277;25418;-55
2023/03/05 09:36:17;;;;;;;;;;;;;;;1.36;82.00;99735.61;106155;1273;22522;-58
2023/03/05 09:38:46;;;;;;;;;;;;;;;1.35;82.28;99740.90;106619;1267;24215;-57
2023/03/05 09:41:18;;;;;;;;;;;;;;;1.28;82.40;99740.04;106207;1278;25306;-56
2023/03/05 09:43:51;;;;;;;;;;;;;;;1.21;82.44;99739.67;106100;1264;22519;-57
2023/03/05 09:46:28;;;;;;;;;;;;;;;1.16;83.06;99740.71;106296;1278;24362;-57
2023/03/05 09:49:02;;;;;;;;;;;;;;;1.14;83.12;99735.65;106507;1277;26520;-55
2023/03/05 09:51:35;;;;;;;;;;;;;;;1.16;83.20;99734.29;106368;1274;24984;-57
2023/03/05 09:54:06;;;;;;;;;;;;;;;1.19;83.21;99733.52;106350;1277;22551;-55
2023/03/05 09:56:37;;;;;;;;;;;;;;;1.22;83.12;99732.73;106362;1264;22520;-56
2023/03/05 09:59:20;;;;;;;;;;;;;;;1.23;82.88;99729.79;106448;1272;25424;-57
2023/03/05 10:01:51;;;;;;;;;;;;;;;1.26;82.99;99732.15;106173;1262;26659;-54
2023/03/05 10:04:25;;;;;;;;;;;;;;;1.29;82.77;99726.83;106043;1257;24289;-58
2023/03/05 10:06:57;;;;;;;;;;;;;;;1.32;82.65;99722.27;106354;1271;24388;-57
2023/03/05 10:09:35;;;;;;;;;;;;;;;1.35;82.75;99719.77;106290;1277;22587;-57
2023/03/05 10:12:07;;;;;;;;;;;;;;;1.41;82.81;99724.09;106258;1275;24289;-58
2023/03/05 10:14:38;;;;;;;;;;;;;;;1.47;82.53;99720.98;106220;1260;22632;-57
2023/03/05 10:17:35;;;;;;;;;;;;;;;1.55;82.57;99714.49;106133;1273;22465;-54
2023/03/05 10:20:15;;;;;;;;;;;;;;;1.64;82.33;99716.86;106140;1276;22524;-57
2023/03/05 10:22:55;;;;;;;;;;;;;;;1.74;81.92;99713.23;106832;1270;25814;-56
2023/03/05 10:25:29;;;;;;;;;;;;;;;1.82;81.90;99709.73;106200;1274;24362;-56
2023/03/05 10:28:04;;;;;;;;;;;;;;;1.89;81.67;99703.45;106192;1278;23032;-57
2023/03/05 10:30:39;;;;;;;;;;;;;;;1.96;81.30;99704.61;106534;1277;22708;-56
2023/03/05 10:33:12;;;;;;;;;;;;;;;2.01;80.84;99698.50;106317;1278;22834;-55
2023/03/05 10:35:48;;;;;;;;;;;;;;;2.07;80.55;99691.89;106319;1264;26159;-54
2023/03/05 10:38:28;;;;;;;;;;;;;;;2.14;80.40;99694.05;106375;1263;22518;-57
2023/03/05 10:41:00;;;;;;;;;;;;;;;2.23;80.49;99692.56;106188;1264;22505;-55
2023/03/05 10:43:34;;;;;;;;;;;;;;;2.30;79.38;99684.50;106462;1274;25360;-54
2023/03/05 10:46:04;;;;;;;;;;;;;;;2.36;78.97;99679.44;106416;1277;24216;-56
2023/03/05 10:48:37;;;;;;;;;;;;;;;2.38;78.87;99674.64;106281;1278;24820;-54
2023/03/05 10:51:13;;;;;;;;;;;;;;;2.43;78.40;99677.02;106266;1278;25527;-56
2023/03/05 10:53:48;;;;;;;;;;;;;;;2.44;77.94;99665.02;106389;1277;22511;-54
2023/03/05 10:56:19;;;;;;;;;;;;;;;2.44;77.86;99665.34;106552;1278;23010;-55
2023/03/05 10:58:50;;;;;;;;;;;;;;;2.43;77.54;99666.39;106246;1264;22610;-57
2023/03/05 11:01:22;;;;;;;;;;;;;;;2.38;76.12;99666.54;106276;1272;24339;-57
2023/03/05 11:03:53;;;;;;;;;;;;;;;2.32;76.64;99666.79;106372;1278;23623;-55
2023/03/05 11:06:31;;;;;;;;;;;;;;;2.25;76.32;99665.03;106379;1275;22625;-58
2023/03/05 11:09:20;;;;;;;;;;;;;;;2.18;76.99;99659.80;106268;1271;25381;-56
2023/03/05 11:12:07;;;;;;;;;;;;;;;2.09;76.70;99658.80;106450;1271;25405;-58
2023/03/05 11:14:39;;;;;;;;;;;;;;;2.03;77.52;99657.31;106270;1278;22511;-58
2023/03/05 11:17:21;;;;;;;;;;;;;;;2.00;77.42;99658.52;106261;1278;22540;-55
2023/03/05 11:19:50;;;;;;;;;;;;;;;1.96;77.63;99654.74;106308;1271;22623;-57
2023/03/05 11:22:20;;;;;;;;;;;;;;;1.93;77.56;99654.69;106275;1272;22610;-57
2023/03/05 11:25:04;;;;;;;;;;;;;;;1.92;78.10;99652.59;106425;1278;22503;-56
2023/03/05 11:27:35;;;;;;;;;;;;;;;1.90;78.19;99655.01;106105;1270;22600;-58
2023/03/05 11:30:19;;;;;;;;;;;;;;;1.89;78.34;99658.33;107423;1271;24275;-55
2023/03/05 11:33:06;;;;;;;;;;;;;;;1.87;78.66;99646.91;105999;1265;25357;-58
2023/03/05 11:35:36;;;;;;;;;;;;;;;1.86;78.89;99643.48;106330;1263;22510;-57
2023/03/05 11:38:06;;;;;;;;;;;;;;;1.85;78.88;99632.09;106341;1265;22741;-56
2023/03/05 11:40:36;;;;;;;;;;;;;;;1.88;79.34;99624.94;106206;1270;22479;-57
2023/03/05 11:43:05;;;;;;;;;;;;;;;1.92;79.44;99627.56;106277;1278;22518;-58
2023/03/05 11:45:35;;;;;;;;;;;;;;;1.96;79.43;99626.05;106426;1278;22533;-56
2023/03/05 11:48:08;;;;;;;;;;;;;;;1.99;79.50;99618.16;106377;1263;23146;-57
2023/03/05 11:50:38;;;;;;;;;;;;;;;2.04;79.67;99618.60;106568;1263;24234;-58
2023/03/05 11:53:12;;;;;;;;;;;;;;;2.10;79.87;99614.02;106439;1275;22880;-56
2023/03/05 11:55:43;;;;;;;;;;;;;;;2.18;79.96;99614.16;106599;1270;23559;-57
2023/03/05 11:58:21;;;;;;;;;;;;;;;2.28;80.15;99609.00;106213;1272;25341;-57
2023/03/05 12:00:50;;;;;;;;;;;;;;;2.38;79.81;99606.26;106422;1270;22505;-58
2023/03/05 12:03:21;;;;;;;;;;;;;;;2.47;79.14;99599.44;106492;1274;25213;-58
2023/03/05 12:05:52;;;;;;;;;;;;;;;2.55;78.78;99592.05;106170;1271;23152;-58
2023/03/05 12:08:25;;;;;;;;;;;;;;;2.61;78.38;99583.21;106216;1274;26510;-56
2023/03/05 12:10:55;;;;;;;;;;;;;;;2.67;78.85;99576.27;106248;1272;22528;-57
2023/03/05 12:13:28;;;;;;;;;;;;;;;2.74;78.51;99576.71;106309;1272;24592;-59
2023/03/05 12:16:03;;;;;;;;;;;;;;;2.80;77.76;99576.38;108813;1272;22557;-58
2023/03/05 12:18:37;;;;;;;;;;;;;;;2.82;77.94;99568.29;106444;1267;23711;-59
2023/03/05 12:21:14;;;;;;;;;;;;;;;2.84;78.05;99568.77;106845;1272;22530;-59
2023/03/05 12:23:47;;;;;;;;;;;;;;;2.84;77.55;99568.69;106292;1271;22711;-62
2023/03/05 12:26:17;;;;;;;;;;;;;;;2.82;76.90;99568.52;106365;1267;25354;-62
2023/03/05 12:29:05;;;;;;;;;;;;;;;2.83;77.49;99560.30;106337;1272;22566;-62
2023/03/05 12:31:38;;;;;;;;;;;;;;;2.89;77.97;99560.73;105936;1270;25349;-62
2023/03/05 12:34:30;;;;;;;;;;;;;;;2.95;77.46;99562.89;106354;1270;22541;-63
2023/03/05 12:37:00;;;;;;;;;;;;;;;2.96;78.03;99560.89;106431;1274;24989;-66
2023/03/05 12:39:57;;;;;;;;;;;;;;;2.96;78.14;99560.73;106042;1256;25426;-54
2023/03/05 12:42:43;;;;;;;;;;;;;;;2.91;78.03;99564.74;106282;1271;22523;-56
2023/03/05 12:45:26;;;;;;;;;;;;;;;2.85;78.23;99564.87;106249;1274;22550;-57
2023/03/05 12:48:13;;;;;;;;;;;;;;;2.73;78.28;99571.01;106606;1275;25426;-58
2023/03/05 12:50:51;;;;;;;;;;;;;;;2.59;78.99;99569.89;106004;1264;26028;-57
2023/03/05 12:53:20;;;;;;;;;;;;;;;2.47;79.18;99565.93;106063;1271;23376;-54
2023/03/05 12:55:57;;;;;;;;;;;;;;;2.35;79.32;99566.29;106246;1264;22549;-56
2023/03/05 12:58:34;;;;;;;;;;;;;;;2.25;79.33;99569.80;106476;1278;25467;-53
2023/03/05 13:01:07;;;;;;;;;;;;;;;2.17;79.47;99566.66;106396;1278;22583;-57
2023/03/05 13:03:39;;;;;;;;;;;;;;;2.13;80.12;99563.02;106253;1277;22541;-57
2023/03/05 13:06:23;;;;;;;;;;;;;;;2.07;79.79;99566.04;106114;1255;22508;-56